createdAt,value
2024-04-06T04:39:08.103Z,104.00
2024-04-06T04:40:09.478Z,108.00
2024-04-06T04:41:10.868Z,124.00
2024-04-06T04:42:12.246Z,132.00
2024-04-06T04:43:13.636Z,152.00
2024-04-06T04:44:30.243Z,172.00
2024-04-06T04:45:16.844Z,196.00
2024-04-06T04:46:18.243Z,224.00
2024-04-06T04:47:19.618Z,268.00
2024-04-06T04:48:20.998Z,324.00
2024-04-06T04:49:22.380Z,396.00
2024-04-06T04:50:23.728Z,452.00
2024-04-06T04:51:25.110Z,500.00
2024-04-06T04:52:26.484Z,528.00
2024-04-06T04:53:27.844Z,560.00
2024-04-06T04:54:29.218Z,596.00
2024-04-06T04:55:30.591Z,640.00
2024-04-06T04:56:32.006Z,700.00
2024-04-06T04:57:33.371Z,772.00
2024-04-06T04:58:34.742Z,844.00
2024-04-06T04:59:36.145Z,916.00
2024-04-06T05:00:37.487Z,972.00
2024-04-06T05:01:38.972Z,1008.00
2024-04-06T05:02:40.314Z,1040.00
2024-04-06T05:03:41.693Z,1084.00
2024-04-06T05:04:43.053Z,1148.00
2024-04-06T05:05:44.416Z,1224.00
2024-04-06T05:06:45.792Z,1140.00
2024-04-06T05:07:47.139Z,1168.00
2024-04-06T05:08:48.501Z,1240.00
2024-04-06T05:09:49.870Z,1272.00
2024-04-06T05:10:51.231Z,1256.00
2024-04-06T05:11:52.626Z,1200.00
2024-04-06T05:12:53.994Z,1132.00
2024-04-06T05:14:05.626Z,1084.00
2024-04-06T05:14:57.096Z,1072.00
2024-04-06T05:15:58.458Z,1124.00
2024-04-06T05:16:59.889Z,1268.00
2024-04-06T05:18:01.233Z,1348.00
2024-04-06T05:19:02.588Z,1408.00
2024-04-06T05:20:03.947Z,1560.00
2024-04-06T05:21:05.298Z,1652.00
2024-04-06T05:22:06.665Z,1540.00
2024-04-06T05:23:08.052Z,1476.00
2024-04-06T05:24:09.397Z,1532.00
2024-04-06T05:25:10.792Z,1508.00
2024-04-06T05:26:12.164Z,1364.00
2024-04-06T05:27:13.538Z,1132.00
2024-04-06T05:28:14.929Z,952.00
2024-04-06T05:29:16.286Z,876.00
2024-04-06T05:30:17.656Z,888.00
2024-04-06T05:31:19.014Z,956.00
2024-04-06T05:32:20.380Z,992.00
2024-04-06T05:33:21.766Z,916.00
2024-04-06T05:34:23.123Z,916.00
2024-04-06T05:35:24.504Z,1072.00
2024-04-06T05:36:25.882Z,1184.00
2024-04-06T05:37:27.257Z,1308.00
2024-04-06T05:38:28.603Z,1488.00
2024-04-06T05:39:29.962Z,1624.00
2024-04-06T05:40:31.323Z,1796.00
2024-04-06T05:41:32.678Z,1896.00
2024-04-06T05:42:34.078Z,1848.00
2024-04-06T05:43:35.461Z,1840.00
2024-04-06T05:44:36.840Z,2084.00
2024-04-06T05:45:38.203Z,2392.00
2024-04-06T05:46:39.570Z,2500.00
2024-04-06T05:47:41.059Z,2608.00
2024-04-06T05:48:42.373Z,2968.00
2024-04-06T05:49:43.744Z,3356.00
2024-04-06T05:50:45.097Z,3864.00
2024-04-06T05:51:46.443Z,4268.00
2024-04-06T05:52:47.821Z,4548.00
2024-04-06T05:53:49.176Z,4728.00
2024-04-06T05:54:50.530Z,4952.00
2024-04-06T05:55:51.902Z,5212.00
2024-04-06T05:56:53.261Z,5484.00
2024-04-06T05:57:54.651Z,5596.00
2024-04-06T05:58:56.002Z,6012.00
2024-04-06T05:59:57.365Z,5944.00
2024-04-06T06:00:58.738Z,6316.00
2024-04-06T06:02:00.123Z,6264.00
2024-04-06T06:03:01.573Z,5960.00
2024-04-06T06:04:02.925Z,6256.00
2024-04-06T06:05:04.297Z,6312.00
2024-04-06T06:06:05.663Z,6420.00
2024-04-06T06:07:07.033Z,6752.00
2024-04-06T06:08:08.389Z,6552.00
2024-04-06T06:09:09.757Z,6540.00
2024-04-06T06:10:11.147Z,6628.00
2024-04-06T06:11:12.507Z,6788.00
2024-04-06T06:12:13.967Z,6960.00
2024-04-06T06:13:15.304Z,7160.00
2024-04-06T06:14:17.235Z,7064.00
2024-04-06T06:15:18.582Z,6936.00
2024-04-06T06:16:19.927Z,8372.00
2024-04-06T06:17:21.308Z,11824.00
2024-04-06T06:18:22.717Z,11084.00
2024-04-06T06:19:24.058Z,11304.00
2024-04-06T06:20:25.417Z,11252.00
2024-04-06T06:21:26.780Z,14732.00
2024-04-06T06:22:28.161Z,10996.00
2024-04-06T06:23:29.544Z,15680.00
2024-04-06T06:24:30.927Z,12168.00
2024-04-06T06:25:32.273Z,11920.00
2024-04-06T06:26:33.689Z,10544.00
2024-04-06T06:27:35.014Z,9544.00
2024-04-06T06:28:36.415Z,9044.00
2024-04-06T06:29:37.789Z,8756.00
2024-04-06T06:30:39.121Z,8568.00
2024-04-06T06:31:40.509Z,8272.00
2024-04-06T06:32:41.901Z,8028.00
2024-04-06T06:33:43.272Z,8108.00
2024-04-06T06:34:44.644Z,7972.00
2024-04-06T06:37:53.354Z,8676.00
2024-04-06T06:40:55.686Z,9292.00
2024-04-06T06:41:57.040Z,9652.00
2024-04-06T06:42:58.400Z,9876.00
2024-04-06T06:43:59.826Z,10072.00
2024-04-06T06:45:01.205Z,9992.00
2024-04-06T06:46:02.725Z,9864.00
2024-04-06T06:47:04.084Z,9992.00
2024-04-06T06:48:05.552Z,10224.00
2024-04-06T06:49:06.939Z,10512.00
2024-04-06T06:50:08.341Z,10880.00
2024-04-06T06:51:09.653Z,11908.00
2024-04-06T06:52:11.016Z,11316.00
2024-04-06T06:53:12.365Z,11076.00
2024-04-06T06:54:13.762Z,10924.00
2024-04-06T06:55:15.130Z,10956.00
2024-04-06T06:56:16.512Z,11792.00
2024-04-06T06:57:17.871Z,12020.00
2024-04-06T06:58:19.235Z,11864.00
2024-04-06T06:59:20.622Z,15640.00
2024-04-06T07:00:21.984Z,12748.00
2024-04-06T07:01:23.373Z,12660.00
2024-04-06T07:02:24.753Z,13060.00
2024-04-06T07:03:26.093Z,14032.00
2024-04-06T07:04:27.512Z,13772.00
2024-04-06T07:05:28.881Z,13548.00
2024-04-06T07:07:32.297Z,13436.00
2024-04-06T07:08:33.675Z,14488.00
2024-04-06T07:09:35.073Z,15376.00
2024-04-06T07:10:36.433Z,18528.00
2024-04-06T07:11:37.789Z,19136.00
2024-04-06T07:12:39.136Z,18752.00
2024-04-06T07:13:40.523Z,10924.00
2024-04-06T07:14:41.919Z,11004.00
2024-04-06T07:15:43.285Z,23008.00
2024-04-06T07:16:44.669Z,19040.00
2024-04-06T07:17:46.027Z,22688.00
2024-04-06T07:18:47.392Z,23904.00
2024-04-06T07:19:48.761Z,24512.00
2024-04-06T07:20:50.118Z,24608.00
2024-04-06T07:21:51.477Z,24544.00
2024-04-06T07:22:52.846Z,24256.00
2024-04-06T07:23:54.244Z,24320.00
2024-04-06T07:24:55.618Z,24032.00
2024-04-06T07:25:56.969Z,24096.00
2024-04-06T07:26:58.347Z,26368.00
2024-04-06T07:27:59.681Z,27168.00
2024-04-06T07:29:01.153Z,27264.00
2024-04-06T07:30:02.515Z,26720.00
2024-04-06T07:31:03.899Z,27424.00
2024-04-06T07:32:05.240Z,28224.00
2024-04-06T07:33:06.613Z,28800.00
2024-04-06T07:34:07.980Z,28704.00
2024-04-06T07:35:09.357Z,29472.00
2024-04-06T07:36:10.736Z,29280.00
2024-04-06T07:37:12.152Z,29344.00
2024-04-06T07:38:14.709Z,25120.00
2024-04-06T07:40:16.690Z,33184.00
2024-04-06T07:41:18.049Z,34400.00
2024-04-06T07:42:19.409Z,34944.00
2024-04-06T07:43:20.776Z,34528.00
2024-04-06T07:44:22.141Z,34720.00
2024-04-06T07:45:23.521Z,35264.00
2024-04-06T07:46:24.880Z,28128.00
2024-04-06T07:47:26.269Z,25152.00
2024-04-06T07:48:27.607Z,15956.00
2024-04-06T07:49:28.966Z,29920.00
2024-04-06T07:50:30.353Z,33248.00
2024-04-06T07:51:31.695Z,30368.00
2024-04-06T07:52:33.080Z,31104.00
2024-04-06T07:53:34.437Z,36128.00
2024-04-06T07:54:35.788Z,30432.00
2024-04-06T07:55:37.163Z,36448.00
2024-04-06T07:56:38.522Z,38688.00
2024-04-06T07:57:39.898Z,40160.00
2024-04-06T07:58:41.291Z,29536.00
2024-04-06T07:59:42.650Z,26656.00
2024-04-06T08:00:44.040Z,26400.00
2024-04-06T08:01:45.416Z,29280.00
2024-04-06T08:02:46.772Z,27200.00
2024-04-06T08:03:48.150Z,37248.00
2024-04-06T08:04:49.491Z,38048.00
2024-04-06T08:05:50.915Z,38208.00
2024-04-06T08:06:52.243Z,36064.00
2024-04-06T08:07:53.630Z,35072.00
2024-04-06T08:08:54.997Z,33152.00
2024-04-06T08:09:56.349Z,35200.00
2024-04-06T08:10:57.704Z,37088.00
2024-04-06T08:11:59.111Z,36320.00
2024-04-06T08:13:00.460Z,36000.00
2024-04-06T08:14:13.552Z,36480.00
2024-04-06T08:15:03.678Z,36128.00
2024-04-06T08:16:05.019Z,34400.00
2024-04-06T08:17:06.379Z,33824.00
2024-04-06T08:18:07.768Z,34688.00
2024-04-06T08:19:09.158Z,35808.00
2024-04-06T08:20:10.524Z,37024.00
2024-04-06T08:21:11.919Z,39616.00
2024-04-06T08:22:13.384Z,41024.00
2024-04-06T08:23:14.740Z,40544.00
2024-04-06T08:24:16.109Z,40544.00
2024-04-06T08:25:17.483Z,40736.00
2024-04-06T08:26:18.883Z,42688.00
2024-04-06T08:27:20.204Z,43456.00
2024-04-06T08:28:21.580Z,43520.00
2024-04-06T08:29:22.956Z,43456.00
2024-04-06T08:30:24.306Z,42944.00
2024-04-06T08:31:25.698Z,43200.00
2024-04-06T08:32:27.056Z,42112.00
2024-04-06T08:33:28.417Z,39872.00
2024-04-06T08:34:29.787Z,41984.00
2024-04-06T08:35:31.168Z,42656.00
2024-04-06T08:36:32.610Z,44544.00
2024-04-06T08:37:33.989Z,42912.00
2024-04-06T08:38:35.338Z,42272.00
2024-04-06T08:39:36.702Z,43296.00
2024-04-06T08:40:38.073Z,44864.00
2024-04-06T08:41:39.437Z,46400.00
2024-04-06T08:42:40.803Z,47328.00
2024-04-06T08:43:42.176Z,46592.00
2024-04-06T08:44:43.548Z,47040.00
2024-04-06T08:45:44.914Z,49568.00
2024-04-06T08:46:46.293Z,47776.00
2024-04-06T08:47:47.637Z,47968.00
2024-04-06T08:48:49.016Z,48864.00
2024-04-06T08:49:50.421Z,49536.00
2024-04-06T08:50:51.764Z,49856.00
2024-04-06T08:51:53.145Z,48928.00
2024-04-06T08:52:54.531Z,49952.00
2024-04-06T08:53:55.870Z,48992.00
2024-04-06T08:54:57.216Z,48672.00
2024-04-06T08:55:58.589Z,49856.00
2024-04-06T08:56:59.959Z,49152.00
2024-04-06T08:58:01.335Z,48320.00
2024-04-06T08:59:02.696Z,50112.00
2024-04-06T09:00:04.059Z,51808.00
2024-04-06T09:01:05.421Z,51360.00
2024-04-06T09:02:06.830Z,50176.00
2024-04-06T09:03:08.181Z,51136.00
2024-04-06T09:04:09.537Z,50656.00
2024-04-06T09:05:10.873Z,52032.00
2024-04-06T09:06:12.242Z,52928.00
2024-04-06T09:07:13.684Z,51200.00
2024-04-06T09:08:15.017Z,51392.00
2024-04-06T09:09:16.377Z,46656.00
2024-04-06T09:10:17.777Z,49728.00
2024-04-06T09:11:19.127Z,52416.00
2024-04-06T09:12:20.518Z,50112.00
2024-04-06T09:13:21.880Z,49984.00
2024-04-06T09:14:25.792Z,45760.00
2024-04-06T09:15:25.070Z,44928.00
2024-04-06T09:16:26.426Z,45376.00
2024-04-06T09:17:27.935Z,43296.00
2024-04-06T09:18:31.083Z,43520.00
2024-04-06T09:19:31.373Z,44480.00
2024-04-06T09:20:32.739Z,44608.00
2024-04-06T09:21:34.114Z,45344.00
2024-04-06T09:22:35.481Z,51264.00
2024-04-06T09:23:36.851Z,54720.00
2024-04-06T09:24:38.229Z,55232.00
2024-04-06T09:25:39.609Z,52768.00
2024-04-06T09:26:40.967Z,50144.00
2024-04-06T09:27:42.347Z,50208.00
2024-04-06T09:28:43.724Z,50848.00
2024-04-06T09:29:45.091Z,50368.00
2024-04-06T09:30:46.467Z,51616.00
2024-04-06T09:31:47.832Z,56960.00
2024-04-06T09:32:49.212Z,52864.00
2024-04-06T09:33:50.595Z,53024.00
2024-04-06T09:34:51.952Z,52320.00
2024-04-06T09:35:53.330Z,52640.00
2024-04-06T09:36:54.712Z,56640.00
2024-04-06T09:37:56.119Z,54336.00
2024-04-06T09:38:57.493Z,53792.00
2024-04-06T09:39:58.879Z,58688.00
2024-04-06T09:41:00.257Z,58208.00
2024-04-06T09:42:01.632Z,56256.00
2024-04-06T09:43:03.021Z,56096.00
2024-04-06T09:44:04.400Z,53216.00
2024-04-06T09:45:05.792Z,50176.00
2024-04-06T09:46:07.163Z,49760.00
2024-04-06T09:47:08.541Z,51456.00
2024-04-06T09:48:09.915Z,51136.00
2024-04-06T09:49:11.334Z,51328.00
2024-04-06T09:50:12.656Z,55648.00
2024-04-06T09:51:14.020Z,54784.00
2024-04-06T09:52:15.439Z,53632.00
2024-04-06T09:53:16.793Z,51168.00
2024-04-06T09:54:18.135Z,51328.00
2024-04-06T09:55:19.492Z,53984.00
2024-04-06T09:56:23.212Z,54880.00
2024-04-06T09:57:22.847Z,57120.00
2024-04-06T09:58:24.267Z,55456.00
2024-04-06T09:59:25.630Z,56704.00
2024-04-06T10:00:27.027Z,61664.00
2024-04-06T10:01:28.387Z,61888.00
2024-04-06T10:02:29.744Z,60864.00
2024-04-06T10:03:31.144Z,60544.00
2024-04-06T10:04:32.500Z,62976.00
2024-04-06T10:05:33.857Z,58496.00
2024-04-06T10:06:36.019Z,56800.00
2024-04-06T10:07:37.503Z,55136.00
2024-04-06T10:08:38.863Z,59360.00
2024-04-06T10:09:40.226Z,61952.00
2024-04-06T10:10:41.570Z,62272.00
2024-04-06T10:11:42.928Z,64448.00
2024-04-06T10:12:44.287Z,64672.00
2024-04-06T10:13:45.701Z,64256.00
2024-04-06T10:14:47.041Z,64256.00
2024-04-06T10:15:48.408Z,62112.00
2024-04-06T10:16:49.771Z,63680.00
2024-04-06T10:17:51.192Z,64384.00
2024-04-06T10:18:52.600Z,60960.00
2024-04-06T10:19:55.217Z,61472.00
2024-04-06T10:21:05.430Z,61600.00
2024-04-06T10:21:56.870Z,61600.00
2024-04-06T10:22:58.223Z,61632.00
2024-04-06T10:23:59.602Z,63008.00
2024-04-06T10:25:00.957Z,65088.00
2024-04-06T10:26:02.288Z,70688.00
2024-04-06T10:27:03.663Z,67744.00
2024-04-06T10:28:05.022Z,64096.00
2024-04-06T10:29:06.397Z,67584.00
2024-04-06T10:30:07.738Z,65568.00
2024-04-06T10:31:11.874Z,67776.00
2024-04-06T10:32:10.305Z,68672.00
2024-04-06T10:33:11.710Z,69280.00
2024-04-06T10:34:13.122Z,68704.00
2024-04-06T10:35:14.451Z,69792.00
2024-04-06T10:36:15.815Z,68064.00
2024-04-06T10:37:17.207Z,67520.00
2024-04-06T10:38:18.531Z,66784.00
2024-04-06T10:39:19.936Z,63008.00
2024-04-06T10:40:21.333Z,65600.00
2024-04-06T10:41:22.678Z,65440.00
2024-04-06T10:42:24.066Z,63072.00
2024-04-06T10:43:25.409Z,62208.00
2024-04-06T10:44:26.792Z,65856.00
2024-04-06T10:45:28.225Z,65888.00
2024-04-06T10:46:29.533Z,66112.00
2024-04-06T10:48:32.175Z,69216.00
2024-04-06T10:49:33.557Z,72896.00
2024-04-06T10:50:35.029Z,70016.00
2024-04-06T10:51:36.388Z,69760.00
2024-04-06T10:52:37.795Z,65472.00
2024-04-06T10:53:39.146Z,61056.00
2024-04-06T10:54:40.507Z,68064.00
2024-04-06T10:55:41.876Z,66272.00
2024-04-06T10:56:43.258Z,68448.00
2024-04-06T10:57:44.598Z,68544.00
2024-04-06T10:58:45.952Z,68128.00
2024-04-06T10:59:47.304Z,68640.00
2024-04-06T11:00:48.668Z,71360.00
2024-04-06T11:01:50.157Z,72864.00
2024-04-06T11:02:51.504Z,73504.00
2024-04-06T11:03:52.854Z,76256.00
2024-04-06T11:04:54.247Z,74784.00
2024-04-06T11:05:55.605Z,74304.00
2024-04-06T11:06:56.985Z,68128.00
2024-04-06T11:07:58.357Z,68192.00
2024-04-06T11:08:59.703Z,69312.00
2024-04-06T11:10:01.151Z,64512.00
2024-04-06T11:11:02.497Z,71072.00
2024-04-06T11:12:03.854Z,68512.00
2024-04-06T11:13:05.208Z,73760.00
2024-04-06T11:14:06.571Z,69248.00
2024-04-06T11:15:07.953Z,74976.00
2024-04-06T11:16:09.349Z,73536.00
2024-04-06T11:17:10.677Z,74976.00
2024-04-06T11:18:12.033Z,70880.00
2024-04-06T11:19:13.418Z,74816.00
2024-04-06T11:20:14.780Z,79392.00
2024-04-06T11:21:16.115Z,76736.00
2024-04-06T11:22:17.527Z,74304.00
2024-04-06T11:23:18.876Z,71200.00
2024-04-06T11:24:20.236Z,69344.00
2024-04-06T11:25:21.688Z,68896.00
2024-04-06T11:26:23.032Z,70240.00
2024-04-06T11:27:24.409Z,67488.00
2024-04-06T11:28:25.800Z,75520.00
2024-04-06T11:29:27.158Z,74080.00
2024-04-06T11:30:28.549Z,79648.00
2024-04-06T11:31:29.903Z,73088.00
2024-04-06T11:32:31.237Z,75840.00
2024-04-06T11:33:32.624Z,73760.00
2024-04-06T11:34:33.979Z,71776.00
2024-04-06T11:35:35.359Z,78592.00
2024-04-06T11:36:36.750Z,79840.00
2024-04-06T11:37:38.932Z,76928.00
2024-04-06T11:38:39.210Z,75360.00
2024-04-06T11:39:40.609Z,68928.00
2024-04-06T11:40:41.985Z,70208.00
2024-04-06T11:41:43.375Z,74240.00
2024-04-06T11:42:44.728Z,76448.00
2024-04-06T11:43:46.099Z,77536.00
2024-04-06T11:44:47.434Z,76096.00
2024-04-06T11:45:48.855Z,75168.00
2024-04-06T11:46:50.237Z,77504.00
2024-04-06T11:47:51.598Z,76512.00
2024-04-06T11:48:52.956Z,76800.00
2024-04-06T11:49:54.313Z,63200.00
2024-04-06T11:50:55.692Z,58432.00
2024-04-06T11:51:57.072Z,50496.00
2024-04-06T11:52:58.419Z,49792.00
2024-04-06T11:53:59.780Z,54400.00
2024-04-06T11:55:01.144Z,59136.00
2024-04-06T11:56:02.582Z,49536.00
2024-04-06T11:57:03.910Z,28992.00
2024-04-06T11:58:05.272Z,27424.00
2024-04-06T11:59:06.631Z,35296.00
2024-04-06T12:00:08.041Z,39328.00
2024-04-06T12:01:09.415Z,38464.00
2024-04-06T12:02:10.786Z,53856.00
2024-04-06T12:03:12.146Z,75168.00
2024-04-06T12:04:13.559Z,73376.00
2024-04-06T12:05:14.887Z,73056.00
2024-04-06T12:06:16.273Z,67776.00
2024-04-06T12:07:17.639Z,69984.00
2024-04-06T12:08:18.996Z,65088.00
2024-04-06T12:09:20.360Z,67936.00
2024-04-06T12:10:21.763Z,57696.00
2024-04-06T12:11:23.126Z,63616.00
2024-04-06T12:12:24.522Z,68320.00
2024-04-06T12:13:25.910Z,77024.00
2024-04-06T12:14:27.291Z,75616.00
2024-04-06T12:15:28.651Z,73920.00
2024-04-06T12:16:30.035Z,71520.00
2024-04-06T12:17:31.399Z,70528.00
2024-04-06T12:18:32.731Z,65600.00
2024-04-06T12:19:34.104Z,67872.00
2024-04-06T12:20:35.471Z,68832.00
2024-04-06T12:21:36.887Z,69824.00
2024-04-06T12:22:38.254Z,70496.00
2024-04-06T12:23:39.629Z,65632.00
2024-04-06T12:24:41.002Z,67008.00
2024-04-06T12:25:42.364Z,68704.00
2024-04-06T12:26:43.764Z,68064.00
2024-04-06T12:27:45.142Z,68992.00
2024-04-06T12:28:46.518Z,66688.00
2024-04-06T12:29:47.881Z,68384.00
2024-04-06T12:30:49.258Z,65120.00
2024-04-06T12:31:50.664Z,67264.00
2024-04-06T12:32:52.010Z,67168.00
2024-04-06T12:33:55.451Z,67072.00
2024-04-06T12:34:54.809Z,60736.00
2024-04-06T12:35:56.172Z,30176.00
2024-04-06T12:36:58.413Z,14172.00
2024-04-06T12:37:58.878Z,12348.00
2024-04-06T12:39:00.242Z,12236.00
2024-04-06T12:40:01.599Z,12876.00
2024-04-06T12:41:02.958Z,11760.00
2024-04-06T12:42:04.328Z,12740.00
2024-04-06T12:43:05.689Z,12332.00
2024-04-06T12:44:07.060Z,12312.00
2024-04-06T12:45:10.172Z,13072.00
2024-04-06T12:46:10.496Z,11876.00
2024-04-06T12:47:11.864Z,12052.00
2024-04-06T12:48:13.216Z,11164.00
2024-04-06T12:49:14.593Z,11284.00
2024-04-06T12:50:15.945Z,12044.00
2024-04-06T12:51:17.303Z,12120.00
2024-04-06T12:52:18.687Z,11820.00
2024-04-06T12:53:20.035Z,12392.00
2024-04-06T12:54:21.413Z,12416.00
2024-04-06T12:55:22.843Z,11684.00
2024-04-06T12:56:24.191Z,10172.00
2024-04-06T12:57:25.570Z,10600.00
2024-04-06T12:58:26.928Z,11248.00
2024-04-06T12:59:28.289Z,12012.00
2024-04-06T13:00:29.663Z,12244.00
2024-04-06T13:01:31.004Z,12036.00
2024-04-06T13:02:32.413Z,12432.00
2024-04-06T13:03:34.698Z,13328.00
2024-04-06T13:04:35.936Z,14400.00
2024-04-06T13:05:37.295Z,14824.00
2024-04-06T13:06:38.659Z,14312.00
2024-04-06T13:07:40.057Z,12544.00
2024-04-06T13:08:41.434Z,10136.00
2024-04-06T13:09:42.788Z,7948.00
2024-04-06T13:10:44.160Z,6572.00
2024-04-06T13:11:45.489Z,5956.00
2024-04-06T13:12:46.869Z,5756.00
2024-04-06T13:13:49.000Z,5648.00
2024-04-06T13:14:50.080Z,5568.00
2024-04-06T13:15:51.432Z,5476.00
2024-04-06T13:16:52.819Z,5388.00
2024-04-06T13:17:54.197Z,5288.00
2024-04-06T13:18:55.562Z,5200.00
2024-04-06T13:19:56.921Z,5124.00
2024-04-06T13:20:58.281Z,5068.00
2024-04-06T13:21:59.649Z,5016.00
2024-04-06T13:23:01.024Z,4972.00
2024-04-06T13:24:02.404Z,5132.00
2024-04-06T13:25:03.771Z,6012.00
2024-04-06T13:26:05.104Z,6360.00
2024-04-06T13:27:06.467Z,5944.00
2024-04-06T13:28:07.838Z,5276.00
2024-04-06T13:29:09.253Z,4824.00
2024-04-06T13:30:10.603Z,4672.00
2024-04-06T13:31:11.942Z,4600.00
2024-04-06T13:32:13.324Z,4536.00
2024-04-06T13:33:14.700Z,4480.00
2024-04-06T13:34:16.101Z,4436.00
2024-04-06T13:35:17.424Z,4396.00
2024-04-06T13:36:18.791Z,4360.00
2024-04-06T13:37:20.232Z,4320.00
2024-04-06T13:38:21.584Z,4276.00
2024-04-06T13:39:22.939Z,4240.00
2024-04-06T13:40:24.342Z,4224.00
2024-04-06T13:41:25.725Z,4200.00
2024-04-06T13:42:27.070Z,4180.00
2024-04-06T13:43:28.447Z,4156.00
2024-04-06T13:44:29.886Z,4140.00
2024-04-06T13:45:31.262Z,4132.00
2024-04-06T13:46:32.647Z,4120.00
2024-04-06T13:47:34.013Z,4116.00
2024-04-06T13:48:35.380Z,4112.00
2024-04-06T13:49:36.737Z,4100.00
2024-04-06T13:50:38.093Z,4076.00
2024-04-06T13:51:39.526Z,4044.00
2024-04-06T13:52:40.885Z,4016.00
2024-04-06T13:53:42.260Z,3996.00
2024-04-06T13:54:43.631Z,3968.00
2024-04-06T13:55:44.994Z,3936.00
2024-04-06T13:56:46.328Z,3912.00
2024-04-06T13:57:47.701Z,3884.00
2024-04-06T13:58:49.548Z,3824.00
2024-04-06T13:59:50.881Z,3764.00
2024-04-06T14:00:52.235Z,3672.00
2024-04-06T14:01:53.614Z,3652.00
2024-04-06T14:02:54.976Z,3660.00
2024-04-06T14:03:56.376Z,3636.00
2024-04-06T14:04:57.751Z,3584.00
2024-04-06T14:05:59.154Z,3508.00
2024-04-06T14:07:00.526Z,3468.00
2024-04-06T14:08:01.881Z,3452.00
2024-04-06T14:09:03.261Z,3408.00
2024-04-06T14:10:04.616Z,3376.00
2024-04-06T14:11:05.981Z,3392.00
2024-04-06T14:12:07.337Z,3392.00
2024-04-06T14:13:08.712Z,3380.00
2024-04-06T14:14:10.107Z,3376.00
2024-04-06T14:15:11.511Z,3364.00
2024-04-06T14:16:12.853Z,3340.00
2024-04-06T14:17:14.220Z,3300.00
2024-04-06T14:18:15.618Z,3288.00
2024-04-06T14:19:17.019Z,3280.00
2024-04-06T14:20:18.386Z,3240.00
2024-04-06T14:21:19.758Z,3220.00
2024-04-06T14:22:21.125Z,3208.00
2024-04-06T14:23:22.470Z,3208.00
2024-04-06T14:24:23.862Z,3236.00
2024-04-06T14:25:25.254Z,3240.00
2024-04-06T14:26:26.567Z,3180.00
2024-04-06T14:27:27.950Z,3136.00
2024-04-06T14:28:29.331Z,3112.00
2024-04-06T14:29:30.693Z,3092.00
2024-04-06T14:30:32.069Z,3076.00
2024-04-06T14:31:33.447Z,3052.00
2024-04-06T14:32:34.807Z,3036.00
2024-04-06T14:33:36.152Z,3016.00
2024-04-06T14:34:37.539Z,2992.00
2024-04-06T14:35:38.895Z,2976.00
2024-04-06T14:36:40.259Z,2964.00
2024-04-06T14:37:41.619Z,2944.00
2024-04-06T14:38:42.987Z,2932.00
2024-04-06T14:39:44.381Z,2916.00
2024-04-06T14:40:45.756Z,2904.00
2024-04-06T14:41:47.106Z,2892.00
2024-04-06T14:42:48.483Z,2872.00
2024-04-06T14:43:49.840Z,2852.00
2024-04-06T14:44:51.217Z,2844.00
2024-04-06T14:45:52.813Z,2832.00
2024-04-06T14:46:54.171Z,2824.00
2024-04-06T14:47:55.531Z,2816.00
2024-04-06T14:48:56.886Z,2816.00
2024-04-06T14:49:58.251Z,2800.00
2024-04-06T14:50:59.627Z,2792.00
2024-04-06T14:52:01.011Z,2788.00
2024-04-06T14:53:02.361Z,2780.00
2024-04-06T14:54:03.719Z,2768.00
2024-04-06T14:55:05.092Z,2784.00
2024-04-06T14:56:06.453Z,2784.00
2024-04-06T14:57:07.811Z,2796.00
2024-04-06T14:58:09.162Z,2800.00
2024-04-06T14:59:10.522Z,2812.00
2024-04-06T15:00:11.907Z,2864.00
2024-04-06T15:01:16.084Z,2936.00
2024-04-06T15:02:14.645Z,3028.00
2024-04-06T15:03:15.974Z,3116.00
2024-04-06T15:04:17.357Z,3244.00
2024-04-06T15:05:18.729Z,3388.00
2024-04-06T15:06:20.093Z,3556.00
2024-04-06T15:07:30.948Z,3724.00
2024-04-06T15:08:23.304Z,3908.00
2024-04-06T15:09:24.660Z,4080.00
2024-04-06T15:10:26.087Z,4232.00
2024-04-06T15:11:27.417Z,4336.00
2024-04-06T15:12:28.791Z,4348.00
2024-04-06T15:13:30.202Z,4280.00
2024-04-06T15:14:31.524Z,4244.00
2024-04-06T15:15:32.896Z,4324.00
2024-04-06T15:16:34.262Z,4384.00
2024-04-06T15:17:35.633Z,4416.00
2024-04-06T15:18:37.062Z,4384.00
2024-04-06T15:19:38.361Z,4320.00
2024-04-06T15:20:39.780Z,4268.00
2024-04-06T15:21:41.130Z,4248.00
2024-04-06T15:22:42.514Z,4256.00
2024-04-06T15:23:43.868Z,4216.00
2024-04-06T15:24:45.249Z,4132.00
2024-04-06T15:25:46.632Z,3952.00
2024-04-06T15:26:47.972Z,3752.00
2024-04-06T15:27:59.038Z,3512.00
2024-04-06T15:28:50.499Z,3240.00
2024-04-06T15:29:51.857Z,2996.00
2024-04-06T15:30:53.253Z,2836.00
2024-04-06T15:31:54.617Z,2712.00
2024-04-06T15:32:55.978Z,2624.00
2024-04-06T15:33:57.329Z,2544.00
2024-04-06T15:34:58.686Z,2496.00
2024-04-06T15:36:00.071Z,2400.00
2024-04-06T15:37:04.406Z,2300.00
2024-04-06T15:38:02.736Z,2240.00
2024-04-06T15:39:04.112Z,2248.00
2024-04-06T15:40:05.496Z,2268.00
2024-04-06T15:41:06.875Z,2284.00
2024-04-06T15:42:08.212Z,2292.00
2024-04-06T15:43:09.576Z,2312.00
2024-04-06T15:44:10.943Z,2352.00
2024-04-06T15:45:12.303Z,2404.00
2024-04-06T15:46:13.676Z,2460.00
2024-04-06T15:47:15.060Z,2544.00
2024-04-06T15:48:16.442Z,2656.00
2024-04-06T15:49:19.484Z,2888.00
2024-04-06T15:50:20.425Z,3344.00
2024-04-06T15:51:21.796Z,3768.00
2024-04-06T15:52:23.161Z,4104.00
2024-04-06T15:53:24.512Z,4396.00
2024-04-06T15:54:25.876Z,4532.00
2024-04-06T15:55:27.323Z,4516.00
2024-04-06T15:56:28.750Z,4472.00
2024-04-06T15:57:30.108Z,4428.00
2024-04-06T15:58:31.472Z,4396.00
2024-04-06T15:59:32.831Z,4380.00
2024-04-06T16:00:34.190Z,4324.00
2024-04-06T16:01:35.580Z,4256.00
2024-04-06T16:02:36.936Z,4172.00
2024-04-06T16:03:38.316Z,4052.00
2024-04-06T16:04:39.671Z,3856.00
2024-04-06T16:05:41.038Z,3620.00
2024-04-06T16:06:42.402Z,3348.00
2024-04-06T16:07:43.762Z,3096.00
2024-04-06T16:08:45.134Z,2880.00
2024-04-06T16:09:46.480Z,2700.00
2024-04-06T16:10:48.415Z,2528.00
2024-04-06T16:11:49.791Z,2376.00
2024-04-06T16:12:51.155Z,2252.00
2024-04-06T16:13:52.500Z,2144.00
2024-04-06T16:14:53.855Z,2060.00
2024-04-06T16:15:55.222Z,2008.00
2024-04-06T16:16:56.621Z,1988.00
2024-04-06T16:17:57.994Z,1968.00
2024-04-06T16:18:59.374Z,1948.00
2024-04-06T16:20:00.716Z,1932.00
2024-04-06T16:21:02.060Z,1912.00
2024-04-06T16:22:03.458Z,1884.00
2024-04-06T16:23:04.808Z,1832.00
2024-04-06T16:24:06.173Z,1768.00
2024-04-06T16:25:07.551Z,1708.00
2024-04-06T16:26:08.910Z,1652.00
2024-04-06T16:27:10.323Z,1616.00
2024-04-06T16:28:11.692Z,1576.00
2024-04-06T16:29:13.047Z,1524.00
2024-04-06T16:30:17.549Z,1480.00
2024-04-06T16:31:15.945Z,1452.00
2024-04-06T16:32:17.359Z,1432.00
2024-04-06T16:33:18.721Z,1408.00
2024-04-06T16:34:20.088Z,1380.00
2024-04-06T16:35:21.446Z,1352.00
2024-04-06T16:36:22.778Z,1316.00
2024-04-06T16:37:24.199Z,1284.00
2024-04-06T16:38:25.531Z,1244.00
2024-04-06T16:39:26.897Z,1216.00
2024-04-06T16:40:28.275Z,1184.00
2024-04-06T16:41:29.605Z,1152.00
2024-04-06T16:42:30.992Z,1116.00
2024-04-06T16:43:32.365Z,1088.00
2024-04-06T16:44:33.714Z,1052.00
2024-04-06T16:45:35.075Z,1024.00
2024-04-06T16:46:36.430Z,996.00
2024-04-06T16:47:37.813Z,968.00
2024-04-06T16:48:39.174Z,940.00
2024-04-06T16:49:40.536Z,912.00
2024-04-06T16:50:41.879Z,884.00
2024-04-06T16:51:43.234Z,864.00
2024-04-06T16:52:44.641Z,844.00
2024-04-06T16:53:46.022Z,820.00
2024-04-06T16:54:47.359Z,800.00
2024-04-06T16:55:48.718Z,780.00
2024-04-06T16:56:50.092Z,760.00
2024-04-06T16:57:51.490Z,744.00